sensor_id;sensor_type;location;lat;lon;timestamp;P1;durP1;ratioP1;P2;durP2;ratioP2
4049;SDS011;2039;50.894;6.888;2023-12-07T00:02:15;30.07;;;10.83;;
4049;SDS011;2039;50.894;6.888;2023-12-07T00:04:43;28.67;;;10.50;;
4049;SDS011;2039;50.894;6.888;2023-12-07T00:07:17;35.40;;;12.13;;
4049;SDS011;2039;50.894;6.888;2023-12-07T00:09:43;38.17;;;12.98;;
4049;SDS011;2039;50.894;6.888;2023-12-07T00:17:11;33.58;;;11.25;;
4049;SDS011;2039;50.894;6.888;2023-12-07T00:19:40;33.28;;;11.57;;
4049;SDS011;2039;50.894;6.888;2023-12-07T00:22:10;30.67;;;11.05;;
4049;SDS011;2039;50.894;6.888;2023-12-07T00:24:39;30.60;;;11.50;;
4049;SDS011;2039;50.894;6.888;2023-12-07T00:27:05;30.95;;;11.75;;
4049;SDS011;2039;50.894;6.888;2023-12-07T00:29:32;34.20;;;11.57;;
4049;SDS011;2039;50.894;6.888;2023-12-07T00:31:57;32.10;;;10.80;;
4049;SDS011;2039;50.894;6.888;2023-12-07T00:34:26;36.90;;;12.07;;
4049;SDS011;2039;50.894;6.888;2023-12-07T00:36:55;33.27;;;11.70;;
4049;SDS011;2039;50.894;6.888;2023-12-07T00:39:20;29.95;;;11.20;;
4049;SDS011;2039;50.894;6.888;2023-12-07T00:41:49;29.90;;;10.80;;
4049;SDS011;2039;50.894;6.888;2023-12-07T00:44:17;39.13;;;12.00;;
4049;SDS011;2039;50.894;6.888;2023-12-07T00:46:43;30.70;;;11.53;;
4049;SDS011;2039;50.894;6.888;2023-12-07T00:49:09;30.70;;;11.60;;
4049;SDS011;2039;50.894;6.888;2023-12-07T00:51:42;33.20;;;13.10;;
4049;SDS011;2039;50.894;6.888;2023-12-07T00:54:08;31.20;;;12.02;;
4049;SDS011;2039;50.894;6.888;2023-12-07T00:56:34;31.60;;;12.50;;
4049;SDS011;2039;50.894;6.888;2023-12-07T00:59:00;37.47;;;14.55;;
4049;SDS011;2039;50.894;6.888;2023-12-07T01:01:27;34.97;;;12.93;;
4049;SDS011;2039;50.894;6.888;2023-12-07T01:03:56;37.00;;;12.95;;
4049;SDS011;2039;50.894;6.888;2023-12-07T01:06:27;33.25;;;13.25;;
4049;SDS011;2039;50.894;6.888;2023-12-07T01:08:55;35.20;;;12.93;;
4049;SDS011;2039;50.894;6.888;2023-12-07T01:11:21;40.38;;;13.23;;
4049;SDS011;2039;50.894;6.888;2023-12-07T01:13:50;33.17;;;12.38;;
4049;SDS011;2039;50.894;6.888;2023-12-07T01:16:15;33.23;;;13.20;;
4049;SDS011;2039;50.894;6.888;2023-12-07T01:18:41;32.73;;;12.20;;
4049;SDS011;2039;50.894;6.888;2023-12-07T01:21:07;33.17;;;12.37;;
4049;SDS011;2039;50.894;6.888;2023-12-07T01:23:33;39.70;;;12.60;;
4049;SDS011;2039;50.894;6.888;2023-12-07T01:25:58;36.63;;;12.00;;
4049;SDS011;2039;50.894;6.888;2023-12-07T01:28:27;32.75;;;11.95;;
4049;SDS011;2039;50.894;6.888;2023-12-07T01:30:53;40.78;;;13.32;;
4049;SDS011;2039;50.894;6.888;2023-12-07T01:33:19;35.90;;;14.30;;
4049;SDS011;2039;50.894;6.888;2023-12-07T01:35:44;36.40;;;13.90;;
4049;SDS011;2039;50.894;6.888;2023-12-07T01:38:10;36.40;;;12.30;;
4049;SDS011;2039;50.894;6.888;2023-12-07T01:40:37;34.28;;;12.50;;
4049;SDS011;2039;50.894;6.888;2023-12-07T01:43:03;38.53;;;13.10;;
4049;SDS011;2039;50.894;6.888;2023-12-07T01:45:31;33.05;;;12.05;;
4049;SDS011;2039;50.894;6.888;2023-12-07T01:47:57;31.00;;;12.90;;
4049;SDS011;2039;50.894;6.888;2023-12-07T01:50:24;33.65;;;13.63;;
4049;SDS011;2039;50.894;6.888;2023-12-07T01:52:57;40.65;;;13.82;;
4049;SDS011;2039;50.894;6.888;2023-12-07T01:55:26;38.90;;;14.27;;
4049;SDS011;2039;50.894;6.888;2023-12-07T01:57:54;36.78;;;13.43;;
4049;SDS011;2039;50.894;6.888;2023-12-07T02:00:20;36.53;;;12.70;;
4049;SDS011;2039;50.894;6.888;2023-12-07T02:02:46;38.53;;;12.70;;
4049;SDS011;2039;50.894;6.888;2023-12-07T02:05:15;41.45;;;13.90;;
4049;SDS011;2039;50.894;6.888;2023-12-07T02:07:41;34.80;;;13.30;;
4049;SDS011;2039;50.894;6.888;2023-12-07T02:10:07;31.10;;;11.70;;
4049;SDS011;2039;50.894;6.888;2023-12-07T02:12:34;35.60;;;13.77;;
4049;SDS011;2039;50.894;6.888;2023-12-07T02:15:03;34.28;;;13.70;;
4049;SDS011;2039;50.894;6.888;2023-12-07T02:17:33;40.28;;;14.25;;
4049;SDS011;2039;50.894;6.888;2023-12-07T02:20:14;33.17;;;13.02;;
4049;SDS011;2039;50.894;6.888;2023-12-07T02:22:54;34.25;;;13.20;;
4049;SDS011;2039;50.894;6.888;2023-12-07T02:25:26;33.38;;;13.07;;
4049;SDS011;2039;50.894;6.888;2023-12-07T02:27:57;36.10;;;13.07;;
4049;SDS011;2039;50.894;6.888;2023-12-07T02:30:23;38.50;;;14.27;;
4049;SDS011;2039;50.894;6.888;2023-12-07T02:32:49;35.30;;;12.67;;
4049;SDS011;2039;50.894;6.888;2023-12-07T02:35:14;36.47;;;13.80;;
4049;SDS011;2039;50.894;6.888;2023-12-07T02:37:44;34.47;;;11.63;;
4049;SDS011;2039;50.894;6.888;2023-12-07T02:40:12;33.90;;;13.35;;
4049;SDS011;2039;50.894;6.888;2023-12-07T02:42:40;33.63;;;12.68;;
4049;SDS011;2039;50.894;6.888;2023-12-07T02:45:08;33.67;;;12.95;;
4049;SDS011;2039;50.894;6.888;2023-12-07T02:47:34;34.50;;;12.68;;
4049;SDS011;2039;50.894;6.888;2023-12-07T02:50:01;41.58;;;14.07;;
4049;SDS011;2039;50.894;6.888;2023-12-07T02:52:30;30.42;;;10.48;;
4049;SDS011;2039;50.894;6.888;2023-12-07T02:54:56;32.57;;;13.47;;
4049;SDS011;2039;50.894;6.888;2023-12-07T02:57:22;37.67;;;14.77;;
4049;SDS011;2039;50.894;6.888;2023-12-07T02:59:48;35.10;;;12.70;;
4049;SDS011;2039;50.894;6.888;2023-12-07T03:02:13;31.33;;;11.83;;
4049;SDS011;2039;50.894;6.888;2023-12-07T03:04:39;31.90;;;12.27;;
4049;SDS011;2039;50.894;6.888;2023-12-07T03:07:05;36.97;;;14.27;;
4049;SDS011;2039;50.894;6.888;2023-12-07T03:09:33;33.03;;;12.60;;
4049;SDS011;2039;50.894;6.888;2023-12-07T03:11:59;32.37;;;12.10;;
4049;SDS011;2039;50.894;6.888;2023-12-07T03:14:25;34.57;;;12.80;;
4049;SDS011;2039;50.894;6.888;2023-12-07T03:16:53;33.63;;;12.00;;
4049;SDS011;2039;50.894;6.888;2023-12-07T03:19:19;36.00;;;15.05;;
4049;SDS011;2039;50.894;6.888;2023-12-07T03:21:45;34.30;;;11.97;;
4049;SDS011;2039;50.894;6.888;2023-12-07T03:24:10;38.10;;;12.67;;
4049;SDS011;2039;50.894;6.888;2023-12-07T03:26:37;31.03;;;12.40;;
4049;SDS011;2039;50.894;6.888;2023-12-07T03:29:03;33.15;;;11.90;;
4049;SDS011;2039;50.894;6.888;2023-12-07T03:31:28;36.10;;;13.90;;
4049;SDS011;2039;50.894;6.888;2023-12-07T03:33:55;34.37;;;13.37;;
4049;SDS011;2039;50.894;6.888;2023-12-07T03:36:21;33.38;;;12.07;;
4049;SDS011;2039;50.894;6.888;2023-12-07T03:38:47;35.33;;;12.55;;
4049;SDS011;2039;50.894;6.888;2023-12-07T03:41:14;29.67;;;12.27;;
4049;SDS011;2039;50.894;6.888;2023-12-07T03:43:40;33.45;;;12.20;;
4049;SDS011;2039;50.894;6.888;2023-12-07T03:46:08;31.03;;;12.10;;
4049;SDS011;2039;50.894;6.888;2023-12-07T03:48:34;30.00;;;12.45;;
4049;SDS011;2039;50.894;6.888;2023-12-07T03:51:00;33.80;;;12.13;;
4049;SDS011;2039;50.894;6.888;2023-12-07T03:53:26;31.08;;;11.63;;
4049;SDS011;2039;50.894;6.888;2023-12-07T03:55:52;33.33;;;12.23;;
4049;SDS011;2039;50.894;6.888;2023-12-07T03:58:18;32.40;;;11.37;;
4049;SDS011;2039;50.894;6.888;2023-12-07T04:00:44;32.25;;;11.68;;
4049;SDS011;2039;50.894;6.888;2023-12-07T04:03:11;34.85;;;13.48;;
4049;SDS011;2039;50.894;6.888;2023-12-07T04:05:36;30.93;;;11.13;;
4049;SDS011;2039;50.894;6.888;2023-12-07T04:08:02;32.03;;;12.30;;
4049;SDS011;2039;50.894;6.888;2023-12-07T04:10:30;30.88;;;11.52;;
4049;SDS011;2039;50.894;6.888;2023-12-07T04:12:56;36.53;;;12.50;;
4049;SDS011;2039;50.894;6.888;2023-12-07T04:15:21;32.17;;;11.90;;
4049;SDS011;2039;50.894;6.888;2023-12-07T04:17:48;32.08;;;11.73;;
4049;SDS011;2039;50.894;6.888;2023-12-07T04:20:13;33.33;;;11.97;;
4049;SDS011;2039;50.894;6.888;2023-12-07T04:22:39;30.50;;;11.27;;
4049;SDS011;2039;50.894;6.888;2023-12-07T04:25:05;31.60;;;12.97;;
4049;SDS011;2039;50.894;6.888;2023-12-07T04:27:32;31.10;;;11.23;;
4049;SDS011;2039;50.894;6.888;2023-12-07T04:29:59;30.95;;;11.57;;
4049;SDS011;2039;50.894;6.888;2023-12-07T04:32:24;30.40;;;10.57;;
4049;SDS011;2039;50.894;6.888;2023-12-07T04:34:50;28.77;;;10.35;;
4049;SDS011;2039;50.894;6.888;2023-12-07T04:37:16;32.17;;;12.07;;
4049;SDS011;2039;50.894;6.888;2023-12-07T04:39:42;40.63;;;11.65;;
4049;SDS011;2039;50.894;6.888;2023-12-07T04:42:08;34.60;;;12.50;;
4049;SDS011;2039;50.894;6.888;2023-12-07T04:44:34;34.47;;;10.87;;
4049;SDS011;2039;50.894;6.888;2023-12-07T04:46:59;34.10;;;11.20;;
4049;SDS011;2039;50.894;6.888;2023-12-07T04:49:26;32.93;;;11.23;;
4049;SDS011;2039;50.894;6.888;2023-12-07T04:51:52;41.83;;;10.98;;
4049;SDS011;2039;50.894;6.888;2023-12-07T04:54:17;30.80;;;10.80;;
4049;SDS011;2039;50.894;6.888;2023-12-07T04:56:47;30.55;;;9.93;;
4049;SDS011;2039;50.894;6.888;2023-12-07T04:59:13;31.45;;;11.85;;
4049;SDS011;2039;50.894;6.888;2023-12-07T05:01:39;30.03;;;9.67;;
4049;SDS011;2039;50.894;6.888;2023-12-07T05:04:04;31.23;;;11.93;;
4049;SDS011;2039;50.894;6.888;2023-12-07T05:06:31;31.80;;;11.07;;
4049;SDS011;2039;50.894;6.888;2023-12-07T05:08:57;32.60;;;10.43;;
4049;SDS011;2039;50.894;6.888;2023-12-07T05:11:26;28.73;;;10.35;;
4049;SDS011;2039;50.894;6.888;2023-12-07T05:13:51;32.22;;;11.35;;
4049;SDS011;2039;50.894;6.888;2023-12-07T05:16:17;37.70;;;11.33;;
4049;SDS011;2039;50.894;6.888;2023-12-07T05:18:43;31.47;;;9.67;;
4049;SDS011;2039;50.894;6.888;2023-12-07T05:21:09;32.13;;;10.50;;
4049;SDS011;2039;50.894;6.888;2023-12-07T05:23:35;29.87;;;10.80;;
4049;SDS011;2039;50.894;6.888;2023-12-07T05:26:00;31.33;;;11.97;;
4049;SDS011;2039;50.894;6.888;2023-12-07T05:28:29;35.10;;;11.98;;
4049;SDS011;2039;50.894;6.888;2023-12-07T05:30:55;32.37;;;10.83;;
4049;SDS011;2039;50.894;6.888;2023-12-07T05:33:25;31.48;;;11.02;;
4049;SDS011;2039;50.894;6.888;2023-12-07T05:35:50;34.55;;;11.80;;
4049;SDS011;2039;50.894;6.888;2023-12-07T05:38:16;37.40;;;13.03;;
4049;SDS011;2039;50.894;6.888;2023-12-07T05:40:42;31.30;;;10.20;;
4049;SDS011;2039;50.894;6.888;2023-12-07T05:43:07;32.00;;;11.30;;
4049;SDS011;2039;50.894;6.888;2023-12-07T05:45:33;28.93;;;10.73;;
4049;SDS011;2039;50.894;6.888;2023-12-07T05:47:59;33.03;;;11.43;;
4049;SDS011;2039;50.894;6.888;2023-12-07T05:50:25;32.47;;;11.33;;
4049;SDS011;2039;50.894;6.888;2023-12-07T05:52:51;28.02;;;8.50;;
4049;SDS011;2039;50.894;6.888;2023-12-07T05:55:17;31.33;;;10.20;;
4049;SDS011;2039;50.894;6.888;2023-12-07T05:57:44;29.10;;;9.30;;
4049;SDS011;2039;50.894;6.888;2023-12-07T06:00:11;28.65;;;9.38;;
4049;SDS011;2039;50.894;6.888;2023-12-07T06:02:37;31.42;;;10.10;;
4049;SDS011;2039;50.894;6.888;2023-12-07T06:05:06;28.75;;;10.38;;
4049;SDS011;2039;50.894;6.888;2023-12-07T06:07:32;31.42;;;10.55;;
4049;SDS011;2039;50.894;6.888;2023-12-07T06:09:59;27.85;;;10.25;;
4049;SDS011;2039;50.894;6.888;2023-12-07T06:12:24;34.63;;;13.13;;
4049;SDS011;2039;50.894;6.888;2023-12-07T06:14:50;32.30;;;11.97;;
4049;SDS011;2039;50.894;6.888;2023-12-07T06:17:16;30.20;;;9.93;;
4049;SDS011;2039;50.894;6.888;2023-12-07T06:19:41;31.47;;;10.83;;
4049;SDS011;2039;50.894;6.888;2023-12-07T06:22:09;32.38;;;10.27;;
4049;SDS011;2039;50.894;6.888;2023-12-07T06:24:39;30.45;;;10.55;;
4049;SDS011;2039;50.894;6.888;2023-12-07T06:27:07;31.50;;;10.07;;
4049;SDS011;2039;50.894;6.888;2023-12-07T06:29:33;30.63;;;11.53;;
4049;SDS011;2039;50.894;6.888;2023-12-07T06:31:58;28.00;;;10.47;;
4049;SDS011;2039;50.894;6.888;2023-12-07T06:34:25;28.02;;;9.52;;
4049;SDS011;2039;50.894;6.888;2023-12-07T06:36:53;28.40;;;8.68;;
4049;SDS011;2039;50.894;6.888;2023-12-07T06:39:18;30.50;;;9.07;;
4049;SDS011;2039;50.894;6.888;2023-12-07T06:41:47;33.23;;;10.00;;
4049;SDS011;2039;50.894;6.888;2023-12-07T06:44:18;28.48;;;8.82;;
4049;SDS011;2039;50.894;6.888;2023-12-07T06:46:50;28.05;;;9.20;;
4049;SDS011;2039;50.894;6.888;2023-12-07T06:49:15;28.57;;;9.07;;
4049;SDS011;2039;50.894;6.888;2023-12-07T06:51:41;38.93;;;10.00;;
4049;SDS011;2039;50.894;6.888;2023-12-07T06:54:07;29.83;;;8.70;;
4049;SDS011;2039;50.894;6.888;2023-12-07T06:56:38;31.55;;;10.77;;
4049;SDS011;2039;50.894;6.888;2023-12-07T06:59:06;27.35;;;8.75;;
4049;SDS011;2039;50.894;6.888;2023-12-07T07:01:35;27.13;;;8.85;;
4049;SDS011;2039;50.894;6.888;2023-12-07T07:04:24;28.70;;;9.20;;
4049;SDS011;2039;50.894;6.888;2023-12-07T07:06:52;30.25;;;9.27;;
4049;SDS011;2039;50.894;6.888;2023-12-07T07:09:17;29.33;;;8.53;;
4049;SDS011;2039;50.894;6.888;2023-12-07T07:11:47;26.25;;;8.77;;
4049;SDS011;2039;50.894;6.888;2023-12-07T07:14:13;30.80;;;9.25;;
4049;SDS011;2039;50.894;6.888;2023-12-07T07:16:39;28.75;;;9.43;;
4049;SDS011;2039;50.894;6.888;2023-12-07T07:19:10;34.40;;;10.35;;
4049;SDS011;2039;50.894;6.888;2023-12-07T07:21:36;26.60;;;9.07;;
4049;SDS011;2039;50.894;6.888;2023-12-07T07:24:02;26.70;;;9.27;;
4049;SDS011;2039;50.894;6.888;2023-12-07T07:26:28;28.97;;;10.20;;
4049;SDS011;2039;50.894;6.888;2023-12-07T07:28:54;31.40;;;9.27;;
4049;SDS011;2039;50.894;6.888;2023-12-07T07:31:20;32.37;;;10.00;;
4049;SDS011;2039;50.894;6.888;2023-12-07T07:33:45;35.23;;;9.40;;
4049;SDS011;2039;50.894;6.888;2023-12-07T07:36:12;27.58;;;9.70;;
4049;SDS011;2039;50.894;6.888;2023-12-07T07:38:42;28.30;;;10.30;;
4049;SDS011;2039;50.894;6.888;2023-12-07T07:41:09;32.90;;;10.60;;
4049;SDS011;2039;50.894;6.888;2023-12-07T07:43:35;37.08;;;10.15;;
4049;SDS011;2039;50.894;6.888;2023-12-07T07:46:02;31.55;;;9.10;;
4049;SDS011;2039;50.894;6.888;2023-12-07T07:53:25;31.08;;;10.50;;
4049;SDS011;2039;50.894;6.888;2023-12-07T07:55:56;36.40;;;11.50;;
4049;SDS011;2039;50.894;6.888;2023-12-07T07:58:22;33.95;;;11.80;;
4049;SDS011;2039;50.894;6.888;2023-12-07T08:00:48;30.43;;;11.20;;
4049;SDS011;2039;50.894;6.888;2023-12-07T08:03:14;32.30;;;12.07;;
4049;SDS011;2039;50.894;6.888;2023-12-07T08:05:40;35.60;;;12.30;;
4049;SDS011;2039;50.894;6.888;2023-12-07T08:08:06;32.22;;;11.98;;
4049;SDS011;2039;50.894;6.888;2023-12-07T08:10:32;34.90;;;12.15;;
4049;SDS011;2039;50.894;6.888;2023-12-07T08:13:01;38.13;;;13.52;;
4049;SDS011;2039;50.894;6.888;2023-12-07T08:15:29;35.50;;;13.05;;
4049;SDS011;2039;50.894;6.888;2023-12-07T08:17:55;35.90;;;13.07;;
4049;SDS011;2039;50.894;6.888;2023-12-07T08:20:21;36.67;;;14.10;;
4049;SDS011;2039;50.894;6.888;2023-12-07T08:22:59;35.05;;;12.63;;
4049;SDS011;2039;50.894;6.888;2023-12-07T08:25:28;36.38;;;13.75;;
4049;SDS011;2039;50.894;6.888;2023-12-07T08:27:53;35.90;;;13.05;;
4049;SDS011;2039;50.894;6.888;2023-12-07T08:30:19;36.40;;;13.47;;
4049;SDS011;2039;50.894;6.888;2023-12-07T08:32:48;33.00;;;11.87;;
4049;SDS011;2039;50.894;6.888;2023-12-07T08:35:13;35.17;;;13.07;;
4049;SDS011;2039;50.894;6.888;2023-12-07T08:37:39;35.93;;;12.53;;
4049;SDS011;2039;50.894;6.888;2023-12-07T08:40:05;35.20;;;13.30;;
4049;SDS011;2039;50.894;6.888;2023-12-07T08:42:34;36.35;;;13.38;;
4049;SDS011;2039;50.894;6.888;2023-12-07T08:45:03;35.95;;;14.30;;
4049;SDS011;2039;50.894;6.888;2023-12-07T08:47:33;32.80;;;12.05;;
4049;SDS011;2039;50.894;6.888;2023-12-07T08:50:02;35.90;;;13.05;;
4049;SDS011;2039;50.894;6.888;2023-12-07T08:52:32;34.10;;;12.10;;
4049;SDS011;2039;50.894;6.888;2023-12-07T08:55:01;32.97;;;13.43;;
4049;SDS011;2039;50.894;6.888;2023-12-07T08:57:29;36.72;;;13.32;;
4049;SDS011;2039;50.894;6.888;2023-12-07T08:59:55;37.07;;;14.07;;
4049;SDS011;2039;50.894;6.888;2023-12-07T09:02:21;34.17;;;12.70;;
4049;SDS011;2039;50.894;6.888;2023-12-07T09:04:51;35.05;;;14.32;;
4049;SDS011;2039;50.894;6.888;2023-12-07T09:07:17;34.10;;;12.32;;
4049;SDS011;2039;50.894;6.888;2023-12-07T09:09:46;36.42;;;12.75;;
4049;SDS011;2039;50.894;6.888;2023-12-07T09:12:14;35.58;;;13.30;;
4049;SDS011;2039;50.894;6.888;2023-12-07T09:14:43;31.65;;;11.52;;
4049;SDS011;2039;50.894;6.888;2023-12-07T09:17:12;40.17;;;12.88;;
4049;SDS011;2039;50.894;6.888;2023-12-07T09:19:49;35.80;;;13.10;;
4049;SDS011;2039;50.894;6.888;2023-12-07T09:22:17;39.03;;;13.15;;
4049;SDS011;2039;50.894;6.888;2023-12-07T09:24:52;35.65;;;12.98;;
4049;SDS011;2039;50.894;6.888;2023-12-07T09:27:21;40.70;;;14.57;;
4049;SDS011;2039;50.894;6.888;2023-12-07T09:29:48;37.72;;;13.20;;
4049;SDS011;2039;50.894;6.888;2023-12-07T09:32:16;35.33;;;13.18;;
4049;SDS011;2039;50.894;6.888;2023-12-07T09:34:50;34.63;;;12.63;;
4049;SDS011;2039;50.894;6.888;2023-12-07T09:37:23;37.65;;;13.02;;
4049;SDS011;2039;50.894;6.888;2023-12-07T09:40:07;34.05;;;12.23;;
4049;SDS011;2039;50.894;6.888;2023-12-07T09:42:48;32.33;;;11.55;;
4049;SDS011;2039;50.894;6.888;2023-12-07T09:45:18;38.72;;;12.35;;
4049;SDS011;2039;50.894;6.888;2023-12-07T09:48:37;38.92;;;12.95;;
4049;SDS011;2039;50.894;6.888;2023-12-07T09:50:49;35.05;;;12.27;;
4049;SDS011;2039;50.894;6.888;2023-12-07T09:53:20;35.55;;;12.52;;
4049;SDS011;2039;50.894;6.888;2023-12-07T09:55:52;36.67;;;13.23;;
4049;SDS011;2039;50.894;6.888;2023-12-07T09:58:17;31.50;;;11.00;;
4049;SDS011;2039;50.894;6.888;2023-12-07T10:00:44;32.15;;;11.80;;
4049;SDS011;2039;50.894;6.888;2023-12-07T10:03:21;34.10;;;11.18;;
4049;SDS011;2039;50.894;6.888;2023-12-07T10:05:53;35.05;;;10.45;;
4049;SDS011;2039;50.894;6.888;2023-12-07T10:08:28;31.05;;;10.93;;
4049;SDS011;2039;50.894;6.888;2023-12-07T10:13:41;34.13;;;11.65;;
4049;SDS011;2039;50.894;6.888;2023-12-07T10:16:10;34.78;;;11.65;;
4049;SDS011;2039;50.894;6.888;2023-12-07T10:18:40;33.60;;;11.20;;
4049;SDS011;2039;50.894;6.888;2023-12-07T10:23:56;35.47;;;10.57;;
4049;SDS011;2039;50.894;6.888;2023-12-07T10:26:22;32.00;;;10.45;;
4049;SDS011;2039;50.894;6.888;2023-12-07T10:29:19;38.28;;;11.38;;
4049;SDS011;2039;50.894;6.888;2023-12-07T10:31:45;34.67;;;10.55;;
4049;SDS011;2039;50.894;6.888;2023-12-07T10:34:19;30.13;;;11.30;;
4049;SDS011;2039;50.894;6.888;2023-12-07T10:36:46;34.40;;;11.77;;
4049;SDS011;2039;50.894;6.888;2023-12-07T10:39:23;33.00;;;11.50;;
4049;SDS011;2039;50.894;6.888;2023-12-07T10:42:27;35.90;;;11.32;;
4049;SDS011;2039;50.894;6.888;2023-12-07T10:45:05;31.65;;;11.75;;
4049;SDS011;2039;50.894;6.888;2023-12-07T10:47:34;35.75;;;11.27;;
4049;SDS011;2039;50.894;6.888;2023-12-07T10:50:02;35.15;;;10.15;;
4049;SDS011;2039;50.894;6.888;2023-12-07T10:52:44;30.60;;;10.45;;
4049;SDS011;2039;50.894;6.888;2023-12-07T10:55:16;36.97;;;11.75;;
4049;SDS011;2039;50.894;6.888;2023-12-07T10:57:51;36.20;;;11.57;;
4049;SDS011;2039;50.894;6.888;2023-12-07T11:00:23;34.63;;;11.38;;
4049;SDS011;2039;50.894;6.888;2023-12-07T11:02:52;32.22;;;11.35;;
4049;SDS011;2039;50.894;6.888;2023-12-07T11:05:18;36.92;;;12.07;;
4049;SDS011;2039;50.894;6.888;2023-12-07T11:10:25;34.90;;;13.35;;
4049;SDS011;2039;50.894;6.888;2023-12-07T11:15:52;33.88;;;11.95;;
4049;SDS011;2039;50.894;6.888;2023-12-07T11:18:18;31.07;;;11.70;;
4049;SDS011;2039;50.894;6.888;2023-12-07T11:20:46;30.45;;;10.35;;
4049;SDS011;2039;50.894;6.888;2023-12-07T11:23:21;32.50;;;12.07;;
4049;SDS011;2039;50.894;6.888;2023-12-07T11:25:48;32.78;;;11.57;;
4049;SDS011;2039;50.894;6.888;2023-12-07T11:28:15;31.98;;;10.90;;
4049;SDS011;2039;50.894;6.888;2023-12-07T11:30:42;29.27;;;10.43;;
4049;SDS011;2039;50.894;6.888;2023-12-07T11:33:09;32.33;;;11.05;;
4049;SDS011;2039;50.894;6.888;2023-12-07T11:38:08;33.25;;;11.48;;
4049;SDS011;2039;50.894;6.888;2023-12-07T11:43:04;31.70;;;10.95;;
4049;SDS011;2039;50.894;6.888;2023-12-07T11:45:40;29.10;;;10.10;;
4049;SDS011;2039;50.894;6.888;2023-12-07T11:48:08;28.80;;;9.50;;
4049;SDS011;2039;50.894;6.888;2023-12-07T11:50:35;33.38;;;11.88;;
4049;SDS011;2039;50.894;6.888;2023-12-07T11:53:00;29.70;;;10.37;;
4049;SDS011;2039;50.894;6.888;2023-12-07T11:55:26;31.60;;;10.93;;
4049;SDS011;2039;50.894;6.888;2023-12-07T11:57:52;32.47;;;10.37;;
4049;SDS011;2039;50.894;6.888;2023-12-07T12:00:19;39.28;;;9.52;;
4049;SDS011;2039;50.894;6.888;2023-12-07T12:02:47;32.72;;;11.80;;
4049;SDS011;2039;50.894;6.888;2023-12-07T12:05:13;38.35;;;11.75;;
4049;SDS011;2039;50.894;6.888;2023-12-07T12:07:43;34.97;;;10.80;;
4049;SDS011;2039;50.894;6.888;2023-12-07T12:10:16;28.50;;;10.68;;
4049;SDS011;2039;50.894;6.888;2023-12-07T12:12:45;28.92;;;9.93;;
4049;SDS011;2039;50.894;6.888;2023-12-07T12:15:11;36.50;;;10.27;;
4049;SDS011;2039;50.894;6.888;2023-12-07T12:17:40;32.15;;;10.07;;
4049;SDS011;2039;50.894;6.888;2023-12-07T12:20:06;29.33;;;9.38;;
4049;SDS011;2039;50.894;6.888;2023-12-07T12:22:36;29.88;;;9.48;;
4049;SDS011;2039;50.894;6.888;2023-12-07T12:25:02;29.67;;;10.40;;
4049;SDS011;2039;50.894;6.888;2023-12-07T12:27:36;30.65;;;9.57;;
4049;SDS011;2039;50.894;6.888;2023-12-07T12:30:09;33.15;;;10.15;;
4049;SDS011;2039;50.894;6.888;2023-12-07T12:32:44;36.55;;;10.95;;
4049;SDS011;2039;50.894;6.888;2023-12-07T12:35:16;35.97;;;10.93;;
4049;SDS011;2039;50.894;6.888;2023-12-07T12:37:46;34.53;;;10.65;;
4049;SDS011;2039;50.894;6.888;2023-12-07T12:40:14;34.60;;;10.65;;
4049;SDS011;2039;50.894;6.888;2023-12-07T12:42:48;27.98;;;8.57;;
4049;SDS011;2039;50.894;6.888;2023-12-07T12:45:18;29.40;;;9.15;;
4049;SDS011;2039;50.894;6.888;2023-12-07T12:47:47;33.30;;;9.15;;
4049;SDS011;2039;50.894;6.888;2023-12-07T12:53:07;25.77;;;8.05;;
4049;SDS011;2039;50.894;6.888;2023-12-07T12:55:43;28.30;;;9.60;;
4049;SDS011;2039;50.894;6.888;2023-12-07T12:58:09;26.52;;;8.82;;
4049;SDS011;2039;50.894;6.888;2023-12-07T13:00:39;27.83;;;8.52;;
4049;SDS011;2039;50.894;6.888;2023-12-07T13:03:23;28.95;;;10.20;;
4049;SDS011;2039;50.894;6.888;2023-12-07T13:05:51;30.13;;;9.30;;
4049;SDS011;2039;50.894;6.888;2023-12-07T13:08:29;28.33;;;8.63;;
4049;SDS011;2039;50.894;6.888;2023-12-07T13:10:58;34.13;;;9.80;;
4049;SDS011;2039;50.894;6.888;2023-12-07T13:13:47;27.13;;;9.38;;
4049;SDS011;2039;50.894;6.888;2023-12-07T13:16:12;31.13;;;8.88;;
4049;SDS011;2039;50.894;6.888;2023-12-07T13:18:39;27.38;;;9.27;;
4049;SDS011;2039;50.894;6.888;2023-12-07T13:21:09;29.50;;;9.13;;
4049;SDS011;2039;50.894;6.888;2023-12-07T13:23:43;26.02;;;8.50;;
4049;SDS011;2039;50.894;6.888;2023-12-07T13:26:18;27.20;;;8.15;;
4049;SDS011;2039;50.894;6.888;2023-12-07T13:28:48;29.95;;;8.73;;
4049;SDS011;2039;50.894;6.888;2023-12-07T13:33:58;28.25;;;9.18;;
4049;SDS011;2039;50.894;6.888;2023-12-07T13:36:24;27.05;;;7.70;;
4049;SDS011;2039;50.894;6.888;2023-12-07T13:38:54;29.13;;;8.85;;
4049;SDS011;2039;50.894;6.888;2023-12-07T13:41:21;25.25;;;8.10;;
4049;SDS011;2039;50.894;6.888;2023-12-07T13:43:47;29.52;;;8.00;;
4049;SDS011;2039;50.894;6.888;2023-12-07T13:46:21;27.55;;;8.73;;
4049;SDS011;2039;50.894;6.888;2023-12-07T13:48:50;30.85;;;7.53;;
4049;SDS011;2039;50.894;6.888;2023-12-07T13:51:16;27.70;;;8.47;;
4049;SDS011;2039;50.894;6.888;2023-12-07T13:53:50;25.67;;;7.70;;
4049;SDS011;2039;50.894;6.888;2023-12-07T13:56:21;27.83;;;7.72;;
4049;SDS011;2039;50.894;6.888;2023-12-07T13:58:53;26.45;;;7.65;;
4049;SDS011;2039;50.894;6.888;2023-12-07T14:01:22;25.08;;;7.47;;
4049;SDS011;2039;50.894;6.888;2023-12-07T14:03:47;29.70;;;7.30;;
4049;SDS011;2039;50.894;6.888;2023-12-07T14:06:22;24.67;;;6.80;;
4049;SDS011;2039;50.894;6.888;2023-12-07T14:08:51;29.45;;;6.72;;
4049;SDS011;2039;50.894;6.888;2023-12-07T14:11:17;25.97;;;7.07;;
4049;SDS011;2039;50.894;6.888;2023-12-07T14:13:44;24.73;;;7.20;;
4049;SDS011;2039;50.894;6.888;2023-12-07T14:16:15;26.77;;;6.82;;
4049;SDS011;2039;50.894;6.888;2023-12-07T14:18:50;27.70;;;7.90;;
4049;SDS011;2039;50.894;6.888;2023-12-07T14:21:28;26.13;;;7.45;;
4049;SDS011;2039;50.894;6.888;2023-12-07T14:23:54;24.97;;;7.03;;
4049;SDS011;2039;50.894;6.888;2023-12-07T14:26:35;32.03;;;7.47;;
4049;SDS011;2039;50.894;6.888;2023-12-07T14:29:07;28.13;;;7.65;;
4049;SDS011;2039;50.894;6.888;2023-12-07T14:31:35;23.65;;;7.10;;
4049;SDS011;2039;50.894;6.888;2023-12-07T14:34:13;25.25;;;7.18;;
4049;SDS011;2039;50.894;6.888;2023-12-07T14:36:40;25.80;;;8.13;;
4049;SDS011;2039;50.894;6.888;2023-12-07T14:39:11;25.35;;;7.50;;
4049;SDS011;2039;50.894;6.888;2023-12-07T14:41:51;26.15;;;7.05;;
4049;SDS011;2039;50.894;6.888;2023-12-07T14:47:28;24.83;;;8.00;;
4049;SDS011;2039;50.894;6.888;2023-12-07T14:49:57;27.30;;;8.05;;
4049;SDS011;2039;50.894;6.888;2023-12-07T14:52:26;24.15;;;7.18;;
4049;SDS011;2039;50.894;6.888;2023-12-07T14:54:57;25.40;;;8.32;;
4049;SDS011;2039;50.894;6.888;2023-12-07T14:57:34;27.77;;;8.68;;
4049;SDS011;2039;50.894;6.888;2023-12-07T15:00:18;27.25;;;9.65;;
4049;SDS011;2039;50.894;6.888;2023-12-07T15:03:02;27.13;;;9.25;;
4049;SDS011;2039;50.894;6.888;2023-12-07T15:05:35;32.95;;;8.18;;
4049;SDS011;2039;50.894;6.888;2023-12-07T15:08:14;28.42;;;9.52;;
4049;SDS011;2039;50.894;6.888;2023-12-07T15:10:45;30.38;;;9.75;;
4049;SDS011;2039;50.894;6.888;2023-12-07T15:13:24;27.38;;;8.70;;
4049;SDS011;2039;50.894;6.888;2023-12-07T15:18:47;27.90;;;9.57;;
4049;SDS011;2039;50.894;6.888;2023-12-07T15:21:27;30.13;;;8.35;;
4049;SDS011;2039;50.894;6.888;2023-12-07T15:24:03;30.45;;;9.38;;
4049;SDS011;2039;50.894;6.888;2023-12-07T15:26:43;31.85;;;9.77;;
4049;SDS011;2039;50.894;6.888;2023-12-07T15:29:15;26.15;;;8.43;;
4049;SDS011;2039;50.894;6.888;2023-12-07T15:31:49;26.42;;;8.98;;
4049;SDS011;2039;50.894;6.888;2023-12-07T15:34:30;26.75;;;8.68;;
4049;SDS011;2039;50.894;6.888;2023-12-07T15:37:05;29.88;;;9.35;;
4049;SDS011;2039;50.894;6.888;2023-12-07T15:39:43;31.85;;;9.40;;